M I D A S
Marine Information and Data Acquisition System
Tripno 522 of the Zeeleeuw from 2003-06-23 06:31:47 to 2003-06-23 11:49:05
Back to CruiseResearch ActivitiesStationsMapUnderway DataData graphs

EquipmentUnitsComment
TimeDGPSUTC
LatitudeDGPSDM.mWGS84
LongitudeDGPSDM.mWGS84
HeadingGyrodeg 
SOGDGPSknotsSpeed over ground
COGDGPSdegCourse over ground
DepthEcho soundermeters200 kHz
Missing or incorrect values are displayed as -999
Navigation data collected by the RV Zeeleeuw from 2003-06-23 06:31:47 to 2003-06-23 11:49:05
Time Latitude Longitude Heading SOG COG Depth
2003-06-23 06:32:53 51°13.65 2°55.91 118.8 4.9 296 -999
2003-06-23 06:33:53 51°13.67 2°55.81 107.8 3.6 289 11.7
2003-06-23 06:34:49 51°13.69 2°55.78 62.8 2.2 49 14.9
2003-06-23 06:35:49 51°13.72 2°55.79 358.8 0.5 186 13.5
2003-06-23 06:36:53 51°13.72 2°55.79 332.5 2 326 13.7
2003-06-23 06:37:49 51°13.77 2°55.7 318 6.5 314 12.6
2003-06-23 06:38:49 51°13.87 2°55.6 340.4 7.7 335 13
2003-06-23 06:39:49 51°13.99 2°55.51 339.9 8.1 335 13
2003-06-23 06:40:49 51°14.11 2°55.42 340.8 8.3 336 12.9
2003-06-23 06:41:49 51°14.23 2°55.31 324.4 9 320 13.3
2003-06-23 06:42:49 51°14.34 2°55.12 313.1 10.1 308 12.2
2003-06-23 06:43:49 51°14.5 2°54.96 332.5 12.4 333 11.6
2003-06-23 06:44:49 51°14.68 2°54.78 324.4 12.7 324 11.4
2003-06-23 06:45:49 51°14.85 2°54.59 324.4 12.8 325 11.4
2003-06-23 06:46:49 51°15.03 2°54.39 323.1 13 323 10.6
2003-06-23 06:47:49 51°15.2 2°54.19 325 13.2 325 11.1
2003-06-23 06:48:49 51°15.39 2°54 330.1 13.3 330 11.8
2003-06-23 06:49:49 51°15.58 2°53.83 330.4 13.5 331 12.6
2003-06-23 06:50:49 51°15.78 2°53.65 329.8 13.6 330 13.4
2003-06-23 06:51:49 51°15.98 2°53.48 330.2 13.7 331 13.8
2003-06-23 06:52:49 51°16.18 2°53.3 330.5 13.8 331 14
2003-06-23 06:53:49 51°16.38 2°53.12 333.3 13.8 333 14.3
2003-06-23 06:54:49 51°16.59 2°52.97 335.9 13.9 336 13.6
2003-06-23 06:55:49 51°16.8 2°52.81 335.7 14 336 11.5
2003-06-23 06:56:49 51°17.01 2°52.66 335.4 14.2 335 12.2
2003-06-23 06:57:49 51°17.22 2°52.5 335.7 14 336 12.1
2003-06-23 06:58:49 51°17.44 2°52.35 335.3 14 335 12.4
2003-06-23 06:59:49 51°17.65 2°52.19 335.7 13.9 336 12.5
2003-06-23 07:00:49 51°17.86 2°52.04 335.5 13.9 335 12.4
2003-06-23 07:01:49 51°18.03 2°51.82 310.4 13.3 310 12.8
2003-06-23 07:02:49 51°18.17 2°51.55 309.9 13.5 310 13.6
2003-06-23 07:03:49 51°18.32 2°51.28 309.8 13.5 310 14.8
2003-06-23 07:04:49 51°18.46 2°51.01 309.9 13.2 311 15.7
2003-06-23 07:05:49 51°18.61 2°50.75 310.3 13 312 16.4
2003-06-23 07:06:49 51°18.75 2°50.49 310.5 13.1 312 16.4
2003-06-23 07:07:49 51°18.89 2°50.23 310.4 12.9 310 15.1
2003-06-23 07:08:49 51°19.03 2°49.97 310.2 12.8 310 13.6
2003-06-23 07:09:49 51°19.16 2°49.72 310.2 12.3 311 14.1
2003-06-23 07:10:49 51°19.3 2°49.47 310.2 12.4 311 15.7
2003-06-23 07:11:49 51°19.43 2°49.22 310 12.4 311 16.4
2003-06-23 07:12:49 51°19.53 2°48.95 286.5 11.9 287 19.3
2003-06-23 07:13:49 51°19.59 2°48.64 284.4 12.3 285 20.8
2003-06-23 07:14:49 51°19.64 2°48.32 284.8 12.7 286 22.9
2003-06-23 07:15:49 51°19.7 2°47.99 285.1 12.9 286 24
2003-06-23 07:16:49 51°19.76 2°47.66 284.9 12.9 286 23.9
2003-06-23 07:17:49 51°19.82 2°47.33 285.2 12.9 287 23.4
2003-06-23 07:18:49 51°19.87 2°47 278.6 12.8 277 22.4
2003-06-23 07:19:49 51°19.9 2°46.67 280.1 12.7 278 19.6
2003-06-23 07:20:49 51°19.93 2°46.33 280 12.6 278 17.7
2003-06-23 07:21:49 51°19.96 2°46.01 280.1 12.4 279 16.3
2003-06-23 07:22:49 51°20 2°45.68 280.1 12.3 280 15.5
2003-06-23 07:23:49 51°20.04 2°45.36 280 12.5 281 23.7
2003-06-23 07:24:49 51°20.08 2°45.03 280 12.6 281 25.3
2003-06-23 07:25:49 51°20.12 2°44.7 280.5 12.7 281 25.1
2003-06-23 07:26:49 51°20.16 2°44.37 279.7 12.8 280 26.5
2003-06-23 07:27:49 51°20.2 2°44.03 280.3 12.9 281 27.7
2003-06-23 07:28:49 51°20.24 2°43.69 280.1 13 281 28.4
2003-06-23 07:29:49 51°20.28 2°43.36 279 12.8 278 28.1
2003-06-23 07:30:49 51°20.31 2°43.02 280.6 12.7 280 27.5
2003-06-23 07:31:49 51°20.35 2°42.69 280.4 12.6 279 24.3
2003-06-23 07:32:49 51°20.38 2°42.36 280.7 12.6 279 22.2
2003-06-23 07:33:49 51°20.41 2°42.03 280.5 12.5 280 21
2003-06-23 07:34:49 51°20.45 2°41.7 280.5 12.5 281 22.8
2003-06-23 07:35:49 51°20.48 2°41.38 280.6 12.6 281 22.9
2003-06-23 07:36:49 51°20.52 2°41.05 280.1 12.8 281 29.7
2003-06-23 07:37:49 51°20.57 2°40.71 280.5 12.9 282 28.8
2003-06-23 07:38:49 51°20.61 2°40.38 280 12.9 281 27.9
2003-06-23 07:39:49 51°20.65 2°40.04 280.5 12.8 281 28.4
2003-06-23 07:40:49 51°20.69 2°39.71 280.8 12.7 280 27.6
2003-06-23 07:41:49 51°20.72 2°39.37 280.4 12.7 280 26.7
2003-06-23 07:42:49 51°20.76 2°39.04 280.6 12.8 280 26.5
2003-06-23 07:43:49 51°20.8 2°38.7 280.1 12.9 279 26.5
2003-06-23 07:44:49 51°20.83 2°38.36 280.3 13 279 25
2003-06-23 07:45:49 51°20.86 2°38.02 280.1 12.9 279 26.2
2003-06-23 07:46:49 51°20.9 2°37.69 280.7 12.8 280 25.8
2003-06-23 07:47:49 51°20.93 2°37.35 280.3 12.9 280 26.2
2003-06-23 07:48:49 51°20.95 2°37.01 274.8 12.7 273 23.6
2003-06-23 07:49:49 51°20.97 2°36.68 274.7 12.7 274 26.1
2003-06-23 07:50:49 51°20.98 2°36.34 275.3 12.7 275 25
2003-06-23 07:51:49 51°21 2°36 275.2 12.7 275 29.7
2003-06-23 07:52:49 51°21.02 2°35.67 275 12.7 275 31.9
2003-06-23 07:53:49 51°21.04 2°35.33 275 12.6 275 33
2003-06-23 07:54:49 51°21.06 2°35 275.3 12.6 276 34
2003-06-23 07:55:49 51°21.09 2°34.66 275 12.7 276 32.8
2003-06-23 07:56:49 51°21.11 2°34.32 275.1 12.9 276 32.5
2003-06-23 07:57:49 51°21.13 2°33.99 274.9 12.7 276 32.2
2003-06-23 07:58:49 51°21.16 2°33.65 275.6 12.9 278 33.9
2003-06-23 07:59:49 51°21.18 2°33.31 276.3 13 278 31.8
2003-06-23 08:00:49 51°21.28 2°33.01 322.1 13.4 322 30
2003-06-23 08:01:49 51°21.5 2°32.89 354 14.1 352 25
2003-06-23 08:02:49 51°21.73 2°32.84 354.1 14.2 352 24.3
2003-06-23 08:03:49 51°21.97 2°32.79 354.9 14.2 353 30
2003-06-23 08:04:49 51°22.2 2°32.74 354.1 14.2 353 32.8
2003-06-23 08:05:49 51°22.44 2°32.7 355.4 14.4 355 33.1
2003-06-23 08:06:49 51°22.68 2°32.67 355.2 14.5 356 33.4
2003-06-23 08:07:49 51°22.91 2°32.62 335.8 13.5 337 32.2
2003-06-23 08:08:49 51°23.02 2°32.36 277.5 11.9 278 32.7
2003-06-23 08:09:49 51°23.02 2°32.03 268.6 12.2 267 31.9
2003-06-23 08:10:49 51°23.01 2°31.71 270.5 12.2 270 31.9
2003-06-23 08:11:49 51°23.01 2°31.39 269.3 12.1 268 30.7
2003-06-23 08:12:49 51°23.01 2°31.06 270 12.2 270 28.1
2003-06-23 08:13:49 51°23.01 2°30.74 265.7 12.2 265 31.8
2003-06-23 08:14:49 51°22.99 2°30.42 265.4 12.2 265 33.4
2003-06-23 08:15:49 51°22.97 2°30.09 264.4 12.1 263 34.1
2003-06-23 08:16:49 51°22.95 2°29.77 264.8 12.2 265 34.3
2003-06-23 08:17:49 51°22.92 2°29.45 265.7 12.3 264 34.5
2003-06-23 08:18:49 51°22.9 2°29.12 265.2 12.3 266 35.9
2003-06-23 08:19:49 51°22.89 2°28.8 265.1 12.2 265 34.8
2003-06-23 08:20:49 51°22.87 2°28.47 265.2 12.2 265 35.4
2003-06-23 08:21:49 51°22.85 2°28.15 265.2 12.4 264 35.6
2003-06-23 08:22:49 51°22.82 2°27.82 265.2 12.3 263 35.7
2003-06-23 08:23:49 51°22.8 2°27.49 265.1 12.4 264 35.3
2003-06-23 08:24:49 51°22.78 2°27.16 265 12.5 263 35
2003-06-23 08:25:49 51°22.75 2°26.83 265.2 12.5 264 34.1
2003-06-23 08:26:49 51°22.73 2°26.5 265.4 12.5 263 34.2
2003-06-23 08:27:49 51°22.71 2°26.17 272.8 12.7 272 29.3
2003-06-23 08:28:49 51°22.82 2°25.88 320.6 13.4 321 19.9
2003-06-23 08:29:49 51°23.04 2°25.8 7.2 14.6 6 23.3
2003-06-23 08:30:49 51°23.28 2°25.86 9.6 15.1 9 28.6
2003-06-23 08:31:49 51°23.53 2°25.92 9.4 15.2 8 32.9
2003-06-23 08:32:49 51°23.78 2°25.98 9.7 15.2 9 34
2003-06-23 08:33:49 51°24.03 2°26.04 5.3 15.2 5 33.6
2003-06-23 08:34:49 51°24.29 2°26.07 5 15.2 5 34.4
2003-06-23 08:35:49 51°24.54 2°26.1 5.1 15.2 4 34.3
2003-06-23 08:36:49 51°24.79 2°26.14 5.3 15.2 5 35.6
2003-06-23 08:37:49 51°25.04 2°26.17 5.2 15.3 5 35.9
2003-06-23 08:38:49 51°25.3 2°26.21 4.6 15.2 4 35.5
2003-06-23 08:39:49 51°25.55 2°26.24 5.2 15.3 5 35
2003-06-23 08:40:49 51°25.8 2°26.27 5 15.2 4 35
2003-06-23 08:41:49 51°26.05 2°26.3 5.1 14.9 4 32.3
2003-06-23 08:42:49 51°26.3 2°26.33 5.4 14.9 4 32.7
2003-06-23 08:43:49 51°26.55 2°26.36 4.9 14.9 4 28.1
2003-06-23 08:44:49 51°26.79 2°26.39 5.4 14.8 5 24.3
2003-06-23 08:45:49 51°27.04 2°26.42 4.9 14.8 4 26.4
2003-06-23 08:46:49 51°27.29 2°26.45 5.2 15 5 28.6
2003-06-23 08:47:49 51°27.54 2°26.48 5.3 15.1 5 34.5
2003-06-23 08:48:49 51°27.79 2°26.52 4.9 15.1 4 34.9
2003-06-23 08:49:49 51°28.04 2°26.55 5 15.1 4 36.1
2003-06-23 08:50:49 51°28.29 2°26.57 5 15 3 36.1
2003-06-23 08:51:49 51°28.54 2°26.6 5.1 14.8 3 35.9
2003-06-23 08:52:49 51°28.78 2°26.63 12.1 14.9 10 35.5
2003-06-23 08:53:49 51°29.03 2°26.71 15.7 14.9 13 33
2003-06-23 08:54:49 51°29.27 2°26.81 16.9 14.8 14 33.3
2003-06-23 08:55:49 51°29.51 2°26.91 17.7 14.9 15 32.3
2003-06-23 08:56:49 51°29.75 2°27.01 17.5 14.9 14 32.6
2003-06-23 08:57:49 51°29.99 2°27.11 17.3 14.9 14 33.3
2003-06-23 08:58:49 51°30.23 2°27.21 17.6 14.9 15 27.9
2003-06-23 08:59:49 51°30.47 2°27.31 17.2 14.9 14 29.1
2003-06-23 09:00:49 51°30.71 2°27.41 17.6 15 15 28.6
2003-06-23 09:01:49 51°30.95 2°27.51 17.6 14.9 15 30.6
2003-06-23 09:02:49 51°31.19 2°27.61 17.2 15 15 34.3
2003-06-23 09:03:49 51°31.43 2°27.72 21 15 18 34.9
2003-06-23 09:04:49 51°31.67 2°27.84 21 14.9 18 36.5
2003-06-23 09:05:49 51°31.91 2°27.96 21.2 15.1 19 39.3
2003-06-23 09:06:49 51°32.15 2°28.09 20.5 15.2 18 40.3
2003-06-23 09:07:49 51°32.39 2°28.21 20.4 15.2 18 40
2003-06-23 09:08:49 51°32.63 2°28.34 20.8 15.2 19 38.7
2003-06-23 09:09:49 51°32.87 2°28.47 20.5 15.1 18 38.1
2003-06-23 09:10:49 51°33.11 2°28.59 20.8 15.1 19 38.2
2003-06-23 09:11:49 51°33.34 2°28.71 20.6 15 18 38.3
2003-06-23 09:12:49 51°33.58 2°28.84 20.2 15 17 37.4
2003-06-23 09:13:49 51°33.82 2°28.96 20 15.1 17 36.8
2003-06-23 09:14:49 51°34.06 2°29.08 20.4 15 19 36.7
2003-06-23 09:15:49 51°34.3 2°29.2 20.5 14.9 18 32.8
2003-06-23 09:16:49 51°34.53 2°29.33 20.4 15 18 35.4
2003-06-23 09:17:49 51°34.77 2°29.45 20.3 15.1 17 36.4
2003-06-23 09:18:49 51°35.01 2°29.57 20.4 15.1 18 34.5
2003-06-23 09:19:49 51°35.25 2°29.69 20.9 15 18 37
2003-06-23 09:20:49 51°35.49 2°29.8 19.5 15 17 38.1
2003-06-23 09:21:49 51°35.73 2°29.91 19.3 14.9 16 35.8
2003-06-23 09:22:49 51°35.97 2°30.02 19.6 15 17 35.6
2003-06-23 09:23:49 51°36.21 2°30.14 19.5 14.9 16 37.2
2003-06-23 09:24:49 51°36.45 2°30.25 19.5 15 16 36.3
2003-06-23 09:25:49 51°36.69 2°30.36 18.8 15 15 37.1
2003-06-23 09:26:49 51°36.92 2°30.47 19.7 14.8 17 37.4
2003-06-23 09:27:49 51°37.16 2°30.58 19.3 14.9 16 37.2
2003-06-23 09:28:49 51°37.4 2°30.69 19.2 14.9 16 38.7
2003-06-23 09:29:49 51°37.64 2°30.8 19.5 15 16 37.3
2003-06-23 09:30:49 51°37.87 2°30.95 39 15.1 35 36.6
2003-06-23 09:31:49 51°38 2°31.27 80.1 14.8 73 38.1
2003-06-23 09:32:49 51°38 2°31.66 104.8 14.5 97 40.2
2003-06-23 09:33:49 51°37.97 2°32.05 105.3 14.5 97 41.6
2003-06-23 09:34:49 51°37.94 2°32.43 107.7 14.5 100 41
2003-06-23 09:35:49 51°37.9 2°32.81 108.2 14.5 99 41.7
2003-06-23 09:36:49 51°37.86 2°33.2 107.4 14.4 98 40.3
2003-06-23 09:37:49 51°37.82 2°33.57 110.5 14.3 102 37.6
2003-06-23 09:38:49 51°37.77 2°33.95 110.4 14.3 101 31.1
2003-06-23 09:39:49 51°37.72 2°34.32 110.3 14.4 101 22.6
2003-06-23 09:40:49 51°37.67 2°34.7 110.4 14.6 103 23.6
2003-06-23 09:41:49 51°37.6 2°35.06 125 14.1 117 30.9
2003-06-23 09:42:49 51°37.48 2°35.39 134.1 13.9 126 35.1
2003-06-23 09:43:49 51°37.33 2°35.68 135 13.9 127 36.9
2003-06-23 09:44:49 51°37.17 2°35.94 153 13.6 146 38.4
2003-06-23 09:45:49 51°36.98 2°36.13 153.7 13.5 146 38.3
2003-06-23 09:46:49 51°36.8 2°36.34 158.8 13.4 150 39.2
2003-06-23 09:47:49 51°36.59 2°36.47 173.1 13.1 165 38.6
2003-06-23 09:48:49 51°36.37 2°36.5 185 13.1 178 38.1
2003-06-23 09:49:49 51°36.16 2°36.51 185 13 178 38.3
2003-06-23 09:50:49 51°35.94 2°36.52 185 13.1 178 36
2003-06-23 09:51:49 51°35.72 2°36.54 184.9 12.9 177 36.1
2003-06-23 09:52:49 51°35.51 2°36.55 184.7 13 178 35.3
2003-06-23 09:53:49 51°35.29 2°36.57 179.7 13.2 174 34.3
2003-06-23 09:54:49 51°35.07 2°36.61 180.1 13.2 174 34.4
2003-06-23 09:55:49 51°34.85 2°36.64 180 13.3 175 35.5
2003-06-23 09:56:49 51°34.63 2°36.68 180.5 13.1 175 35.7
2003-06-23 09:57:49 51°34.41 2°36.71 180.2 13.2 175 37
2003-06-23 09:58:49 51°34.2 2°36.74 181.2 13.2 175 38.2
2003-06-23 09:59:49 51°33.98 2°36.77 181.5 13 176 40.8
2003-06-23 10:00:49 51°33.76 2°36.78 184.8 13 179 39.8
2003-06-23 10:01:49 51°33.54 2°36.79 184.7 13.1 179 39.4
2003-06-23 10:02:49 51°33.32 2°36.8 184 13.1 178 40.4
2003-06-23 10:03:49 51°33.11 2°36.81 184.8 13 179 40.3
2003-06-23 10:04:49 51°32.89 2°36.82 184.6 13 179 39.2
2003-06-23 10:05:49 51°32.67 2°36.82 184.2 13.1 178 39.8
2003-06-23 10:06:49 51°32.45 2°36.83 184.5 12.9 179 36.5
2003-06-23 10:07:49 51°32.24 2°36.83 186.5 12.8 180 39.2
2003-06-23 10:08:49 51°32.02 2°36.83 186.7 12.9 181 38.7
2003-06-23 10:09:49 51°31.81 2°36.83 186.4 12.7 181 36.7
2003-06-23 10:10:49 51°31.6 2°36.82 186.9 12.9 181 35
2003-06-23 10:11:49 51°31.39 2°36.82 186.4 12.8 181 33.2
2003-06-23 10:12:49 51°31.17 2°36.82 186.1 12.8 180 32.5
2003-06-23 10:13:49 51°30.96 2°36.81 186.1 12.8 181 30.5
2003-06-23 10:14:49 51°30.75 2°36.81 185.8 12.7 180 28.1
2003-06-23 10:15:49 51°30.54 2°36.81 186.1 12.8 181 26.7
2003-06-23 10:16:49 51°30.33 2°36.8 186.3 12.6 180 24.9
2003-06-23 10:17:49 51°30.12 2°36.8 186.7 12.5 181 25.7
2003-06-23 10:18:49 51°29.91 2°36.85 169.5 13 163 25.3
2003-06-23 10:19:49 51°29.7 2°36.96 168.3 13.1 162 27.3
2003-06-23 10:20:49 51°29.49 2°37.07 168.3 13.1 161 23.6
2003-06-23 10:21:49 51°29.28 2°37.18 169 13.2 162 29.5
2003-06-23 10:22:49 51°29.07 2°37.28 169.1 13.2 163 36.4
2003-06-23 10:23:49 51°28.86 2°37.39 168.1 13.3 162 37.2
2003-06-23 10:24:49 51°28.65 2°37.51 164.6 13.5 158 37.6
2003-06-23 10:25:49 51°28.44 2°37.64 165.1 13.5 159 35.6
2003-06-23 10:26:49 51°28.23 2°37.77 165.8 13.4 160 36.3
2003-06-23 10:27:49 51°28.02 2°37.89 165.5 13.4 160 37.7
2003-06-23 10:28:49 51°27.82 2°38.04 160.4 13.4 155 33.6
2003-06-23 10:29:49 51°27.61 2°38.18 160.7 13.5 155 32.3
2003-06-23 10:30:49 51°27.42 2°38.34 158.4 13.4 153 33.1
2003-06-23 10:31:49 51°27.22 2°38.51 158.6 13.4 153 33.2
2003-06-23 10:32:49 51°27.02 2°38.68 157.4 13.4 151 34
2003-06-23 10:33:49 51°26.83 2°38.85 158 13.4 151 32.5
2003-06-23 10:34:49 51°26.63 2°39.02 158.4 13.3 152 32.6
2003-06-23 10:35:49 51°26.43 2°39.19 158.3 13.4 151 35.3
2003-06-23 10:36:49 51°26.24 2°39.36 158.4 13.3 152 38.5
2003-06-23 10:37:49 51°26.04 2°39.53 158.5 13.5 152 33.7
2003-06-23 10:38:49 51°25.85 2°39.7 158.5 13.3 153 31.6
2003-06-23 10:39:49 51°25.65 2°39.86 158.2 13.4 152 30.7
2003-06-23 10:40:49 51°25.46 2°40.03 159.4 13.3 155 29.1
2003-06-23 10:41:49 51°25.26 2°40.19 157.8 13.4 153 28.6
2003-06-23 10:42:49 51°25.06 2°40.35 157.6 13.4 152 27.3
2003-06-23 10:43:49 51°24.86 2°40.52 158.2 13.3 151 26
2003-06-23 10:44:49 51°24.67 2°40.68 159.5 13.4 153 27.5
2003-06-23 10:45:49 51°24.47 2°40.85 158.1 13.4 151 27.2
2003-06-23 10:46:49 51°24.27 2°41.02 158.6 13.3 152 25.5
2003-06-23 10:47:49 51°24.08 2°41.19 157.6 13.4 150 27.2
2003-06-23 10:48:49 51°23.89 2°41.39 150.9 13.5 144 29
2003-06-23 10:49:49 51°23.7 2°41.6 148.3 13.7 141 27.3
2003-06-23 10:50:49 51°23.53 2°41.82 144 13.5 139 28
2003-06-23 10:51:49 51°23.38 2°42.06 137.1 11 130 28.1
2003-06-23 10:52:49 51°23.27 2°42.28 135.9 10.5 127 27.8
2003-06-23 10:53:49 51°23.16 2°42.5 136.6 10.3 132 26.8
2003-06-23 10:54:49 51°23.06 2°42.72 134.8 10.4 128 26.8
2003-06-23 10:55:49 51°22.95 2°42.96 133.5 12.1 126 26.5
2003-06-23 10:56:49 51°22.82 2°43.22 131.5 12.3 126 25.7
2003-06-23 10:57:49 51°22.71 2°43.5 130.5 12.9 127 25.6
2003-06-23 10:58:49 51°22.56 2°43.76 140.1 13.7 135 26.6
2003-06-23 10:59:49 51°22.4 2°44.01 141.8 13.7 137 26
2003-06-23 11:00:49 51°22.24 2°44.27 140.9 13.7 133 25.3
2003-06-23 11:01:49 51°22.08 2°44.53 140.9 13.4 138 24.5
2003-06-23 11:02:49 51°21.92 2°44.78 140.7 13.6 136 23.1
2003-06-23 11:03:49 51°21.76 2°45.04 140.3 13.6 134 22.7
2003-06-23 11:04:49 51°21.6 2°45.3 140.1 13.4 135 23.8
2003-06-23 11:05:49 51°21.45 2°45.55 140.1 13.5 133 25.7
2003-06-23 11:06:49 51°21.29 2°45.81 138.3 13.5 133 26.3
2003-06-23 11:07:49 51°21.13 2°46.06 140.7 13.3 136 24.9
2003-06-23 11:08:49 51°20.97 2°46.31 140.9 13.6 136 24.3
2003-06-23 11:09:49 51°20.81 2°46.56 139.5 13.8 134 22.6
2003-06-23 11:10:49 51°20.65 2°46.82 141.1 13.5 137 19.9
2003-06-23 11:11:49 51°20.48 2°47.07 139.6 13.4 135 16.8
2003-06-23 11:12:49 51°20.32 2°47.32 140 13.6 137 19.1
2003-06-23 11:13:49 51°20.16 2°47.57 140.1 13.6 136 21.3
2003-06-23 11:14:49 51°20 2°47.82 139.6 13.5 135 22.3
2003-06-23 11:15:49 51°19.84 2°48.08 140.8 13.6 136 22.4
2003-06-23 11:16:49 51°19.68 2°48.33 139.3 13.5 134 21.3
2003-06-23 11:17:49 51°19.52 2°48.58 140.4 13.6 136 18.6
2003-06-23 11:18:49 51°19.35 2°48.82 140.1 13.6 135 16.3
2003-06-23 11:19:49 51°19.19 2°49.08 141.1 13.3 136 12.8
2003-06-23 11:20:49 51°19.03 2°49.32 141.3 13.3 136 12.2
2003-06-23 11:21:49 51°18.87 2°49.57 139.6 13.4 135 10.9
2003-06-23 11:22:49 51°18.71 2°49.82 140.2 13.6 136 13
2003-06-23 11:23:49 51°18.56 2°50.08 130.3 13.5 122 14.4
2003-06-23 11:24:49 51°18.43 2°50.38 130.4 13.8 125 14.4
2003-06-23 11:25:49 51°18.3 2°50.67 129.7 13.6 125 13.8
2003-06-23 11:26:49 51°18.17 2°50.96 130.1 13.4 126 13.1
2003-06-23 11:27:49 51°18.04 2°51.26 128.1 13.3 124 11.7
2003-06-23 11:28:49 51°17.91 2°51.55 131.6 13.4 132 10.8
2003-06-23 11:29:49 51°17.78 2°51.84 128.1 13.5 121 10.6
2003-06-23 11:30:49 51°17.63 2°52.09 152 13.2 149 10.5
2003-06-23 11:31:49 51°17.43 2°52.23 163.6 13.3 161 10.6
2003-06-23 11:32:49 51°17.22 2°52.35 162.6 13.3 158 10.5
2003-06-23 11:33:49 51°17.01 2°52.49 160.5 13.3 156 9.8
2003-06-23 11:34:49 51°16.81 2°52.63 160.4 13.3 155 10.1
2003-06-23 11:35:49 51°16.6 2°52.77 160.5 13.6 159 11.8
2003-06-23 11:36:49 51°16.4 2°52.93 155.2 13.6 152 12.6
2003-06-23 11:37:49 51°16.2 2°53.1 155.3 13.4 153 12.3
2003-06-23 11:38:49 51°16 2°53.27 154.5 13.5 151 12
2003-06-23 11:39:49 51°15.8 2°53.44 153.6 13.6 151 11.6
2003-06-23 11:40:49 51°15.6 2°53.6 156 13.6 154 11
2003-06-23 11:41:49 51°15.4 2°53.77 156 13.5 156 10.2
2003-06-23 11:42:49 51°15.21 2°53.94 154.8 13.4 151 9.4
2003-06-23 11:43:49 51°15.01 2°54.11 154.5 13.2 150 8.9
2003-06-23 11:44:49 51°14.83 2°54.33 143.9 13.9 141 9.8
2003-06-23 11:45:49 51°14.66 2°54.56 144.3 12.7 139 9.6
2003-06-23 11:46:49 51°14.51 2°54.76 143.4 11.5 140 10.2
2003-06-23 11:47:49 51°14.38 2°54.98 128.5 11.5 125 10.3
2003-06-23 11:48:49 51°14.28 2°55.22 130.4 9.4 127 11.2